createdAt,value
2018-09-28T00:02:12.020Z,102224.05
2018-09-28T00:04:51.202Z,102231.09
2018-09-28T00:07:28.835Z,102224.48
2018-09-28T00:10:05.798Z,102225.81
2018-09-28T00:12:42.850Z,102233.33
2018-09-28T00:15:20.017Z,102232.41
2018-09-28T00:17:58.237Z,102241.68
2018-09-28T00:20:35.047Z,102244.30
2018-09-28T00:23:12.176Z,102230.62
2018-09-28T00:25:49.775Z,102237.23
2018-09-28T00:28:28.306Z,102245.64
2018-09-28T00:30:57.969Z,102240.31
2018-09-28T00:33:27.534Z,102242.08
2018-09-28T00:35:57.218Z,102245.64
2018-09-28T00:38:26.783Z,102244.74
2018-09-28T00:40:56.469Z,102251.34
2018-09-28T00:43:26.449Z,102251.77
2018-09-28T00:45:56.234Z,102246.89
2018-09-28T00:48:26.365Z,102253.08
2018-09-28T00:50:56.455Z,102243.36
2018-09-28T00:53:26.426Z,102249.10
2018-09-28T00:55:56.327Z,102258.39
2018-09-28T00:58:26.206Z,102252.64
2018-09-28T01:00:55.902Z,102261.45
2018-09-28T01:03:25.828Z,102261.02
2018-09-28T01:05:55.521Z,102260.59
2018-09-28T01:08:25.556Z,102256.63
2018-09-28T01:10:55.315Z,102266.33
2018-09-28T01:13:25.180Z,102265.91
2018-09-28T01:15:55.057Z,102266.79
2018-09-28T01:18:25.001Z,102271.19
2018-09-28T01:20:54.674Z,102277.81
2018-09-28T01:23:24.318Z,102275.61
2018-09-28T01:25:54.195Z,102272.50
2018-09-28T01:28:23.969Z,102273.40
2018-09-28T01:30:53.869Z,102276.05
2018-09-28T01:33:23.699Z,102282.66
2018-09-28T01:35:53.362Z,102278.24
2018-09-28T01:38:23.295Z,102283.98
2018-09-28T01:40:52.918Z,102283.98
2018-09-28T01:43:22.674Z,102279.12
2018-09-28T01:45:52.255Z,102287.47
2018-09-28T01:48:21.828Z,102283.94
2018-09-28T01:50:51.431Z,102288.35
2018-09-28T01:53:22.114Z,102283.06
2018-09-28T01:55:52.417Z,102293.63
2018-09-28T01:58:22.083Z,102289.22
2018-09-28T02:00:51.789Z,102283.05
2018-09-28T02:03:21.493Z,102291.39
2018-09-28T02:05:51.303Z,102289.12
2018-09-28T02:08:20.944Z,102288.63
2018-09-28T02:10:50.676Z,102277.52
2018-09-28T02:13:20.251Z,102300.88
2018-09-28T02:15:49.844Z,102295.16
2018-09-28T02:18:19.589Z,102298.24
2018-09-28T02:20:49.179Z,102298.28
2018-09-28T02:23:19.533Z,102302.27
2018-09-28T02:25:49.262Z,102311.52
2018-09-28T02:28:18.869Z,102304.47
2018-09-28T02:30:48.585Z,102311.95
2018-09-28T02:33:18.224Z,102315.48
2018-09-28T02:35:54.528Z,102311.08
2018-09-28T02:38:24.110Z,102318.09
2018-09-28T02:40:54.297Z,102317.22
2018-09-28T02:43:23.922Z,102326.47
2018-09-28T02:45:53.507Z,102332.61
2018-09-28T02:48:23.137Z,102333.04
2018-09-28T02:50:52.871Z,102334.78
2018-09-28T02:53:22.483Z,102330.82
2018-09-28T02:55:52.097Z,102334.34
2018-09-28T02:58:23.247Z,102333.00
2018-09-28T03:00:52.946Z,102338.73
2018-09-28T03:03:22.550Z,102340.04
2018-09-28T03:05:52.140Z,102335.63
2018-09-28T03:08:21.909Z,102343.09
2018-09-28T03:10:51.647Z,102340.45
2018-09-28T03:13:21.399Z,102345.28
2018-09-28T03:15:51.389Z,102341.30
2018-09-28T03:18:21.066Z,102339.54
2018-09-28T03:20:50.990Z,102344.38
2018-09-28T03:23:20.748Z,102349.63
2018-09-28T03:25:50.752Z,102351.40
2018-09-28T03:28:20.477Z,102363.70
2018-09-28T03:30:50.274Z,102366.41
2018-09-28T03:33:20.107Z,102360.65
2018-09-28T03:35:50.160Z,102368.09
2018-09-28T03:38:20.230Z,102371.20
2018-09-28T03:40:50.246Z,102375.98
2018-09-28T03:43:20.110Z,102378.62
2018-09-28T03:45:50.021Z,102381.68
2018-09-28T03:48:19.830Z,102375.95
2018-09-28T03:50:50.060Z,102383.84
2018-09-28T03:53:20.027Z,102393.50
2018-09-28T03:55:49.991Z,102394.39
2018-09-28T03:58:19.985Z,102397.45
2018-09-28T04:00:51.476Z,102404.91
2018-09-28T04:03:21.492Z,102403.14
2018-09-28T04:05:51.273Z,102411.02
2018-09-28T04:08:21.016Z,102413.63
2018-09-28T04:10:50.885Z,102413.20
2018-09-28T04:13:20.649Z,102412.73
2018-09-28T04:15:50.490Z,102411.83
2018-09-28T04:18:20.249Z,102418.44
2018-09-28T04:20:49.997Z,102423.26
2018-09-28T04:23:19.935Z,102425.84
2018-09-28T04:25:49.658Z,102435.06
2018-09-28T04:28:19.581Z,102437.24
2018-09-28T04:30:49.847Z,102439.42
2018-09-28T04:33:19.832Z,102435.38
2018-09-28T04:35:49.764Z,102448.17
2018-09-28T04:38:19.546Z,102448.58
2018-09-28T04:40:49.663Z,102450.75
2018-09-28T04:43:20.317Z,102456.03
2018-09-28T04:45:50.187Z,102463.05
2018-09-28T04:48:19.963Z,102469.17
2018-09-28T04:50:49.791Z,102469.15
2018-09-28T04:53:21.793Z,102473.98
2018-09-28T04:55:51.546Z,102479.23
2018-09-28T04:58:21.471Z,102477.89
2018-09-28T05:00:51.280Z,102479.18
2018-09-28T05:03:20.965Z,102495.86
2018-09-28T05:05:50.682Z,102495.86
2018-09-28T05:08:20.445Z,102492.27
2018-09-28T05:10:50.226Z,102501.55
2018-09-28T05:13:19.910Z,102503.28
2018-09-28T05:15:50.176Z,102505.89
2018-09-28T05:18:19.857Z,102502.34
2018-09-28T05:20:49.668Z,102510.67
2018-09-28T05:23:19.286Z,102516.77
2018-09-28T05:25:48.882Z,102525.52
2018-09-28T05:28:18.726Z,102521.50
2018-09-28T05:30:53.970Z,102520.59
2018-09-28T05:33:18.145Z,102524.96
2018-09-28T05:35:47.815Z,102534.59
2018-09-28T05:38:17.513Z,102531.89
2018-09-28T05:40:47.100Z,102539.34
2018-09-28T05:43:18.089Z,102544.07
2018-09-28T05:45:47.859Z,102543.06
2018-09-28T05:48:17.516Z,102543.33
2018-09-28T05:50:47.185Z,102544.94
2018-09-28T05:53:16.964Z,102549.63
2018-09-28T05:55:46.643Z,102553.02
2018-09-28T05:58:21.622Z,102559.09
2018-09-28T06:00:56.169Z,102562.05
2018-09-28T06:03:26.023Z,102568.95
2018-09-28T06:05:58.837Z,102567.11
2018-09-28T06:08:29.879Z,102568.79
2018-09-28T06:10:59.573Z,102573.14
2018-09-28T06:13:29.222Z,102571.78
2018-09-28T06:15:58.935Z,102576.59
2018-09-28T06:18:28.680Z,102586.30
2018-09-28T06:20:58.410Z,102584.59
2018-09-28T06:23:27.978Z,102588.11
2018-09-28T06:25:57.680Z,102595.20
2018-09-28T06:28:27.317Z,102598.80
2018-09-28T06:30:56.985Z,102597.09
2018-09-28T06:33:26.784Z,102598.52
2018-09-28T06:35:56.654Z,102602.08
2018-09-28T06:38:26.290Z,102607.39
2018-09-28T06:40:56.064Z,102608.83
2018-09-28T06:43:25.716Z,102612.02
2018-09-28T06:45:55.537Z,102616.92
2018-09-28T06:48:25.290Z,102617.37
2018-09-28T06:50:54.937Z,102616.53
2018-09-28T06:53:24.763Z,102622.72
2018-09-28T06:55:54.395Z,102617.95
2018-09-28T06:58:24.090Z,102620.27
2018-09-28T07:00:53.797Z,102630.52
2018-09-28T07:03:23.557Z,102632.83
2018-09-28T07:05:53.254Z,102634.80
2018-09-28T07:08:22.914Z,102645.27
2018-09-28T07:10:52.558Z,102638.52
2018-09-28T07:13:22.217Z,102644.73
2018-09-28T07:15:51.981Z,102653.86
2018-09-28T07:18:21.734Z,102661.09
2018-09-28T07:20:56.956Z,102673.17
2018-09-28T07:23:26.662Z,102668.03
2018-09-28T07:25:56.697Z,102669.84
2018-09-28T07:28:26.406Z,102676.92
2018-09-28T07:30:56.167Z,102681.32
2018-09-28T07:36:23.808Z,102692.95
2018-09-28T07:38:53.300Z,102700.56
2018-09-28T07:41:22.894Z,102697.98
2018-09-28T07:43:52.528Z,102700.61
2018-09-28T07:46:22.242Z,102712.52
2018-09-28T07:48:57.267Z,102713.41
2018-09-28T07:51:26.989Z,102703.73
2018-09-28T07:53:58.661Z,102709.48
2018-09-28T07:56:28.431Z,102708.22
2018-09-28T07:58:58.270Z,102713.54
2018-09-28T08:01:28.049Z,102718.80
2018-09-28T08:03:57.925Z,102723.59
2018-09-28T08:06:27.614Z,102723.12
2018-09-28T08:08:57.271Z,102725.78
2018-09-28T08:11:27.198Z,102732.89
2018-09-28T08:13:56.980Z,102735.53
2018-09-28T08:16:26.719Z,102735.99
2018-09-28T08:18:56.381Z,102739.01
2018-09-28T08:21:26.225Z,102734.10
2018-09-28T08:23:55.853Z,102749.00
2018-09-28T08:26:25.744Z,102752.02
2018-09-28T08:28:55.393Z,102756.82
2018-09-28T08:31:25.165Z,102752.80
2018-09-28T08:33:54.853Z,102761.25
2018-09-28T08:36:24.563Z,102764.87
2018-09-28T08:38:54.167Z,102764.14
2018-09-28T08:41:23.973Z,102764.77
2018-09-28T08:43:53.671Z,102764.98
2018-09-28T08:46:23.424Z,102767.70
2018-09-28T08:48:53.027Z,102772.63
2018-09-28T08:51:22.943Z,102774.88
2018-09-28T08:53:53.279Z,102767.88
2018-09-28T08:56:23.030Z,102767.52
2018-09-28T08:58:52.690Z,102781.36
2018-09-28T09:01:22.425Z,102780.11
2018-09-28T09:03:52.256Z,102781.52
2018-09-28T09:06:21.850Z,102782.39
2018-09-28T09:08:51.511Z,102789.45
2018-09-28T09:11:21.132Z,102791.59
2018-09-28T09:13:50.810Z,102797.73
2018-09-28T09:16:20.412Z,102789.27
2018-09-28T09:18:50.065Z,102798.14
2018-09-28T09:21:19.774Z,102803.88
2018-09-28T09:23:49.462Z,102807.84
2018-09-28T09:26:19.076Z,102816.65
2018-09-28T09:28:48.685Z,102817.33
2018-09-28T09:31:18.374Z,102822.92
2018-09-28T09:33:48.058Z,102823.27
2018-09-28T09:36:19.021Z,102817.45
2018-09-28T09:38:49.102Z,102819.37
2018-09-28T09:41:18.661Z,102815.30
2018-09-28T09:43:48.308Z,102822.98
2018-09-28T09:46:18.028Z,102822.67
2018-09-28T09:48:47.973Z,102825.44
2018-09-28T09:51:17.596Z,102817.58
2018-09-28T09:53:47.310Z,102821.98
2018-09-28T09:56:16.963Z,102824.16
2018-09-28T09:58:48.043Z,102821.59
2018-09-28T10:01:22.736Z,102826.62
2018-09-28T10:03:52.425Z,102820.65
2018-09-28T10:06:23.240Z,102811.64
2018-09-28T10:08:53.032Z,102815.41
2018-09-28T10:11:22.697Z,102823.12
2018-09-28T10:13:52.571Z,102817.14
2018-09-28T10:16:22.182Z,102821.27
2018-09-28T10:18:51.730Z,102818.23
2018-09-28T10:21:21.322Z,102815.59
2018-09-28T10:23:50.932Z,102812.45
2018-09-28T10:26:20.698Z,102823.03
2018-09-28T10:28:50.643Z,102811.14
2018-09-28T10:31:20.354Z,102811.19
2018-09-28T10:33:50.146Z,102819.61
2018-09-28T10:36:19.893Z,102816.55
2018-09-28T10:38:49.534Z,102817.03
2018-09-28T10:41:19.250Z,102817.08
2018-09-28T10:43:48.649Z,102814.97
2018-09-28T10:46:18.265Z,102827.50
2018-09-28T10:48:47.889Z,102809.41
2018-09-28T10:51:17.546Z,102821.44
2018-09-28T10:53:47.131Z,102822.81
2018-09-28T10:56:16.817Z,102827.73
2018-09-28T10:58:46.719Z,102818.88
2018-09-28T11:01:16.366Z,102831.28
2018-09-28T11:03:46.126Z,102832.16
2018-09-28T11:06:15.730Z,102828.20
2018-09-28T11:08:45.402Z,102828.61
2018-09-28T11:11:15.014Z,102841.85
2018-09-28T11:13:44.668Z,102835.61
2018-09-28T11:16:14.274Z,102836.48
2018-09-28T11:18:43.942Z,102837.38
2018-09-28T11:21:13.603Z,102844.47
2018-09-28T11:23:43.208Z,102859.56
2018-09-28T11:26:12.843Z,102843.66
2018-09-28T11:28:42.407Z,102840.13
2018-09-28T11:31:11.997Z,102845.88
2018-09-28T11:33:41.758Z,102852.02
2018-09-28T11:36:11.370Z,102848.28
2018-09-28T11:38:40.949Z,102841.85
2018-09-28T11:41:10.634Z,102859.94
2018-09-28T11:43:40.246Z,102866.30
2018-09-28T11:46:10.038Z,102874.13
2018-09-28T11:48:40.554Z,102875.98
2018-09-28T11:51:10.316Z,102871.85
2018-09-28T11:53:40.148Z,102867.23
2018-09-28T11:56:09.745Z,102867.14
2018-09-28T11:58:39.395Z,102871.55
2018-09-28T12:01:09.347Z,102873.77
2018-09-28T12:03:38.948Z,102872.99
2018-09-28T12:06:08.540Z,102874.38
2018-09-28T12:08:38.411Z,102868.67
2018-09-28T12:11:08.263Z,102878.00
2018-09-28T12:13:38.562Z,102868.33
2018-09-28T12:16:09.546Z,102874.09
2018-09-28T12:18:39.274Z,102874.52
2018-09-28T12:21:08.905Z,102864.73
2018-09-28T12:23:38.543Z,102868.75
2018-09-28T12:26:08.107Z,102866.20
2018-09-28T12:28:37.744Z,102856.87
2018-09-28T12:31:07.505Z,102853.87
2018-09-28T12:33:37.203Z,102852.97
2018-09-28T12:36:07.595Z,102844.80
2018-09-28T12:38:37.174Z,102841.38
2018-09-28T12:41:07.705Z,102836.09
2018-09-28T12:43:37.461Z,102836.77
2018-09-28T12:46:07.305Z,102840.99
2018-09-28T12:48:37.035Z,102845.02
2018-09-28T12:51:06.770Z,102847.73
2018-09-28T12:53:36.485Z,102853.78
2018-09-28T12:56:06.821Z,102843.75
2018-09-28T12:58:36.482Z,102844.91
2018-09-28T13:01:06.937Z,102844.48
2018-09-28T13:03:36.395Z,102855.61
2018-09-28T13:06:07.104Z,102849.88
2018-09-28T13:08:36.877Z,102852.75
2018-09-28T13:11:06.544Z,102862.27
2018-09-28T13:13:36.157Z,102862.33
2018-09-28T13:16:06.943Z,102858.39
2018-09-28T13:18:36.662Z,102860.20
2018-09-28T13:21:06.750Z,102864.52
2018-09-28T13:23:36.334Z,102863.56
2018-09-28T13:26:06.688Z,102874.91
2018-09-28T13:28:36.306Z,102870.45
2018-09-28T13:31:07.108Z,102869.36
2018-09-28T13:33:36.721Z,102868.19
2018-09-28T13:36:06.556Z,102865.39
2018-09-28T13:38:36.519Z,102865.06
2018-09-28T13:41:06.697Z,102869.33
2018-09-28T13:43:36.283Z,102879.84
2018-09-28T13:46:07.194Z,102878.16
2018-09-28T13:48:36.831Z,102885.48
2018-09-28T13:51:07.082Z,102884.34
2018-09-28T13:53:36.727Z,102884.37
2018-09-28T13:56:06.376Z,102886.12
2018-09-28T13:58:36.045Z,102883.78
2018-09-28T14:01:06.417Z,102878.80
2018-09-28T14:03:36.073Z,102871.38
2018-09-28T14:06:06.522Z,102875.53
2018-09-28T14:08:36.310Z,102886.59
2018-09-28T14:11:06.511Z,102886.19
2018-09-28T14:13:36.232Z,102889.87
2018-09-28T14:16:06.687Z,102893.46
2018-09-28T14:18:36.386Z,102900.97
2018-09-28T14:21:06.335Z,102894.69
2018-09-28T14:23:35.914Z,102871.51
2018-09-28T14:26:06.480Z,102894.09
2018-09-28T14:28:36.207Z,102894.98
2018-09-28T14:31:06.531Z,102894.00
2018-09-28T14:33:36.234Z,102902.83
2018-09-28T14:36:06.633Z,102904.66
2018-09-28T14:38:36.285Z,102911.72
2018-09-28T14:41:06.687Z,102913.86
2018-09-28T14:43:37.302Z,102907.78
2018-09-28T14:46:07.256Z,102914.04
2018-09-28T14:48:36.968Z,102912.20
2018-09-28T14:51:06.670Z,102927.98
2018-09-28T14:53:36.269Z,102915.30
2018-09-28T14:56:06.508Z,102925.54
2018-09-28T14:58:36.154Z,102918.72
2018-09-28T15:01:06.769Z,102920.18
2018-09-28T15:03:36.280Z,102917.94
2018-09-28T15:06:06.735Z,102924.05
2018-09-28T15:08:36.500Z,102929.76
2018-09-28T15:11:06.362Z,102930.66
2018-09-28T15:13:36.074Z,102927.98
2018-09-28T15:16:06.421Z,102929.84
2018-09-28T15:18:35.992Z,102931.27
2018-09-28T15:21:06.523Z,102938.45
2018-09-28T15:23:36.153Z,102933.59
2018-09-28T15:26:06.901Z,102947.31
2018-09-28T15:28:36.549Z,102946.32
2018-09-28T15:31:07.495Z,102936.02
2018-09-28T15:33:37.107Z,102946.95
2018-09-28T15:36:07.334Z,102951.69
2018-09-28T15:38:37.177Z,102960.52
2018-09-28T15:41:06.979Z,102958.78
2018-09-28T15:46:36.541Z,102952.93
2018-09-28T15:49:06.552Z,102964.18
2018-09-28T15:51:36.153Z,102966.36
2018-09-28T15:54:06.875Z,102969.06
2018-09-28T15:56:36.661Z,102967.62
2018-09-28T15:59:06.469Z,102968.59
2018-09-28T16:01:36.105Z,102964.59
2018-09-28T16:04:06.373Z,102963.98
2018-09-28T16:06:36.044Z,102958.19
2018-09-28T16:09:09.674Z,102969.51
2018-09-28T16:11:39.456Z,102968.98
2018-09-28T16:14:09.101Z,102979.94
2018-09-28T16:16:38.677Z,102976.34
2018-09-28T16:19:08.495Z,102979.77
2018-09-28T16:21:38.203Z,102982.70
2018-09-28T16:24:07.854Z,102984.53
2018-09-28T16:26:37.808Z,102991.95
2018-09-28T16:29:09.003Z,102988.13
2018-09-28T16:31:38.601Z,102986.47
2018-09-28T16:34:08.328Z,102999.39
2018-09-28T16:36:37.995Z,103010.98
2018-09-28T16:39:10.081Z,103012.83
2018-09-28T16:41:40.118Z,103012.72
2018-09-28T16:44:10.004Z,103016.71
2018-09-28T16:49:37.333Z,103031.39
2018-09-28T16:52:07.105Z,103027.13
2018-09-28T16:54:36.967Z,103032.55
2018-09-28T16:57:06.796Z,103039.26
2018-09-28T16:59:36.702Z,103037.60
2018-09-28T17:02:06.853Z,103039.48
2018-09-28T17:04:36.790Z,103048.40
2018-09-28T17:07:06.960Z,103050.70
2018-09-28T17:09:36.970Z,103051.65
2018-09-28T17:12:06.549Z,103051.30
2018-09-28T17:14:36.053Z,103058.84
2018-09-28T17:17:06.649Z,103064.61
2018-09-28T17:19:36.223Z,103067.80
2018-09-28T17:22:06.394Z,103062.69
2018-09-28T17:24:35.959Z,103066.39
2018-09-28T17:27:06.550Z,103067.41
2018-09-28T17:29:36.241Z,103068.01
2018-09-28T17:32:06.624Z,103065.99
2018-09-28T17:34:36.245Z,103066.58
2018-09-28T17:37:06.241Z,103062.83
2018-09-28T17:39:35.824Z,103068.72
2018-09-28T17:42:06.757Z,103076.38
2018-09-28T17:44:36.522Z,103070.02
2018-09-28T17:47:06.724Z,103076.35
2018-09-28T17:49:36.381Z,103081.32
2018-09-28T17:52:06.714Z,103078.88
2018-09-28T17:54:36.366Z,103085.17
2018-09-28T17:57:06.990Z,103083.57
2018-09-28T18:02:22.384Z,103096.28
2018-09-28T18:04:52.484Z,103091.56
2018-09-28T18:07:22.413Z,103089.06
2018-09-28T18:09:52.357Z,103091.03
2018-09-28T18:12:22.346Z,103084.62
2018-09-28T18:14:52.317Z,103085.26
2018-09-28T18:17:22.169Z,103092.80
2018-09-28T18:19:52.112Z,103091.56
2018-09-28T18:22:22.118Z,103090.43
2018-09-28T18:24:52.022Z,103095.36
2018-09-28T18:27:21.996Z,103082.44
2018-09-28T18:29:51.755Z,103086.58
2018-09-28T18:32:21.650Z,103088.55
2018-09-28T18:34:51.582Z,103084.41
2018-09-28T18:37:21.453Z,103081.98
2018-09-28T18:39:51.310Z,103083.95
2018-09-28T18:42:21.364Z,103088.50
2018-09-28T18:44:51.230Z,103094.83
2018-09-28T18:47:21.186Z,103101.64
2018-09-28T18:49:51.178Z,103100.09
2018-09-28T18:52:21.293Z,103098.89
2018-09-28T18:54:51.194Z,103104.19
2018-09-28T18:57:21.106Z,103098.25
2018-09-28T18:59:50.942Z,103098.42
2018-09-28T19:02:20.854Z,103099.14
2018-09-28T19:04:50.759Z,103101.20
2018-09-28T19:07:20.652Z,103101.48
2018-09-28T19:09:50.576Z,103109.52
2018-09-28T19:12:20.534Z,103106.30
2018-09-28T19:14:50.605Z,103108.73
2018-09-28T19:17:20.529Z,103105.47
2018-09-28T19:19:50.363Z,103114.05
2018-09-28T19:22:20.250Z,103113.86
2018-09-28T19:24:49.961Z,103112.83
2018-09-28T19:27:19.881Z,103116.19
2018-09-28T19:29:49.779Z,103116.47
2018-09-28T19:32:20.150Z,103124.59
2018-09-28T19:34:50.037Z,103128.31
2018-09-28T19:37:19.862Z,103121.57
2018-09-28T19:39:49.654Z,103126.58
2018-09-28T19:42:19.468Z,103134.29
2018-09-28T19:44:50.082Z,103138.02
2018-09-28T19:47:19.897Z,103141.41
2018-09-28T19:49:49.706Z,103142.95
2018-09-28T19:52:19.545Z,103146.73
2018-09-28T19:54:49.339Z,103141.72
2018-09-28T19:57:19.157Z,103138.91
2018-09-28T19:59:48.965Z,103140.98
2018-09-28T20:02:18.669Z,103139.94
2018-09-28T20:04:48.575Z,103142.02
2018-09-28T20:07:18.417Z,103144.52
2018-09-28T20:09:48.611Z,103143.69
2018-09-28T20:12:18.346Z,103149.69
2018-09-28T20:14:48.136Z,103156.50
2018-09-28T20:17:17.850Z,103145.42
2018-09-28T20:19:47.777Z,103154.36
2018-09-28T20:22:17.581Z,103157.74
2018-09-28T20:24:47.425Z,103158.84
2018-09-28T20:27:19.169Z,103166.06
2018-09-28T20:29:51.766Z,103156.70
2018-09-28T20:32:22.768Z,103154.22
2018-09-28T20:34:52.580Z,103158.44
2018-09-28T20:37:22.492Z,103167.84
2018-09-28T20:39:52.418Z,103173.37
2018-09-28T20:42:22.221Z,103175.77
2018-09-28T20:44:52.032Z,103182.14
2018-09-28T20:47:21.846Z,103175.01
2018-09-28T20:49:51.546Z,103177.88
2018-09-28T20:52:21.466Z,103178.30
2018-09-28T20:54:51.298Z,103176.06
2018-09-28T20:59:44.542Z,103178.00
2018-09-28T21:02:14.275Z,103180.14
2018-09-28T21:04:43.980Z,103177.86
2018-09-28T21:07:13.734Z,103186.52
2018-09-28T21:09:43.584Z,103182.03
2018-09-28T21:12:13.502Z,103194.55
2018-09-28T21:14:43.225Z,103197.59
2018-09-28T21:17:13.049Z,103192.19
2018-09-28T21:19:42.775Z,103184.30
2018-09-28T21:22:12.506Z,103178.52
2018-09-28T21:24:42.334Z,103177.92
2018-09-28T21:27:12.077Z,103174.01
2018-09-28T21:29:41.878Z,103169.11
2018-09-28T21:32:11.387Z,103170.84
2018-09-28T21:34:40.900Z,103168.98
2018-09-28T21:38:13.676Z,103171.12
2018-09-28T21:40:43.192Z,103167.23
2018-09-28T21:43:12.732Z,103173.77
2018-09-28T21:45:42.280Z,103172.93
2018-09-28T21:48:11.806Z,103181.69
2018-09-28T21:50:41.331Z,103178.74
2018-09-28T21:53:10.865Z,103175.80
2018-09-28T21:55:40.557Z,103177.16
2018-09-28T21:58:10.065Z,103174.84
2018-09-28T22:00:40.116Z,103168.61
2018-09-28T22:03:09.942Z,103171.16
2018-09-28T22:05:39.467Z,103167.67
2018-09-28T22:08:09.004Z,103180.78
2018-09-28T22:10:38.541Z,103184.25
2018-09-28T22:13:08.113Z,103184.51
2018-09-28T22:15:37.687Z,103183.91
2018-09-28T22:18:07.370Z,103184.30
2018-09-28T22:20:36.872Z,103175.86
2018-09-28T22:23:06.833Z,103174.25
2018-09-28T22:25:36.494Z,103172.66
2018-09-28T22:28:06.156Z,103177.75
2018-09-28T22:30:35.673Z,103173.70
2018-09-28T22:33:06.297Z,103177.34
2018-09-28T22:35:35.875Z,103169.91
2018-09-28T22:38:06.432Z,103167.84
2018-09-28T22:40:36.045Z,103168.43
2018-09-28T22:43:06.529Z,103167.58
2018-09-28T22:45:36.615Z,103167.14
2018-09-28T22:48:06.552Z,103168.90
2018-09-28T22:50:36.065Z,103158.51
2018-09-28T22:53:06.278Z,103161.37
2018-09-28T22:55:35.786Z,103161.89
2018-09-28T22:58:06.286Z,103158.00
2018-09-28T23:00:35.856Z,103168.14
2018-09-28T23:03:06.540Z,103159.52
2018-09-28T23:05:36.163Z,103160.17
2018-09-28T23:08:14.539Z,103158.70
2018-09-28T23:10:51.046Z,103166.39
2018-09-28T23:13:30.984Z,103164.52
2018-09-28T23:16:08.331Z,103171.30
2018-09-28T23:18:47.626Z,103171.15
2018-09-28T23:21:27.259Z,103177.53
2018-09-28T23:24:06.201Z,103176.61
2018-09-28T23:26:44.845Z,103169.19
2018-09-28T23:29:19.243Z,103172.22
2018-09-28T23:31:58.012Z,103171.66
2018-09-28T23:34:35.865Z,103165.05
2018-09-28T23:37:12.140Z,103172.46
2018-09-28T23:39:50.679Z,103182.16
2018-09-28T23:42:28.677Z,103179.22
2018-09-28T23:45:06.108Z,103177.17
2018-09-28T23:47:39.272Z,103181.59
2018-09-28T23:50:12.788Z,103184.67
2018-09-28T23:52:50.656Z,103180.76
2018-09-28T23:55:28.489Z,103179.39
2018-09-28T23:58:06.581Z,103178.98
